sensor_id;sensor_type;location;lat;lon;timestamp;temperature;humidity
9800;DHT22;4939;52.00085300;4.17406100;2023-04-25T00:01:18;7.40;99.90
9800;DHT22;4939;52.00085300;4.17406100;2023-04-25T00:03:44;7.50;99.90
9800;DHT22;4939;52.00085300;4.17406100;2023-04-25T00:06:12;7.50;99.90
9800;DHT22;4939;52.00085300;4.17406100;2023-04-25T00:08:38;7.40;99.90
9800;DHT22;4939;52.00085300;4.17406100;2023-04-25T00:11:04;7.40;99.90
9800;DHT22;4939;52.00085300;4.17406100;2023-04-25T00:13:30;7.40;99.90
9800;DHT22;4939;52.00085300;4.17406100;2023-04-25T00:15:55;7.40;99.90
9800;DHT22;4939;52.00085300;4.17406100;2023-04-25T00:18:26;7.40;99.90
9800;DHT22;4939;52.00085300;4.17406100;2023-04-25T00:20:54;7.50;99.90
9800;DHT22;4939;52.00085300;4.17406100;2023-04-25T00:23:21;7.60;99.90
9800;DHT22;4939;52.00085300;4.17406100;2023-04-25T00:25:48;7.60;99.90
9800;DHT22;4939;52.00085300;4.17406100;2023-04-25T00:28:15;7.50;99.90
9800;DHT22;4939;52.00085300;4.17406100;2023-04-25T00:30:41;7.40;99.90
9800;DHT22;4939;52.00085300;4.17406100;2023-04-25T00:33:08;7.40;99.90
9800;DHT22;4939;52.00085300;4.17406100;2023-04-25T00:35:34;7.30;99.90
9800;DHT22;4939;52.00085300;4.17406100;2023-04-25T00:38:00;7.30;99.90
9800;DHT22;4939;52.00085300;4.17406100;2023-04-25T00:40:26;7.30;99.90
9800;DHT22;4939;52.00085300;4.17406100;2023-04-25T00:42:53;7.30;99.90
9800;DHT22;4939;52.00085300;4.17406100;2023-04-25T00:45:19;7.30;99.90
9800;DHT22;4939;52.00085300;4.17406100;2023-04-25T00:47:45;7.40;99.90
9800;DHT22;4939;52.00085300;4.17406100;2023-04-25T00:50:13;7.40;99.90
9800;DHT22;4939;52.00085300;4.17406100;2023-04-25T00:52:43;7.50;99.90
9800;DHT22;4939;52.00085300;4.17406100;2023-04-25T00:55:10;7.40;99.90
9800;DHT22;4939;52.00085300;4.17406100;2023-04-25T00:57:36;7.50;99.90
9800;DHT22;4939;52.00085300;4.17406100;2023-04-25T01:00:04;7.50;99.90
9800;DHT22;4939;52.00085300;4.17406100;2023-04-25T01:02:32;7.50;99.90
9800;DHT22;4939;52.00085300;4.17406100;2023-04-25T01:04:58;7.50;99.90
9800;DHT22;4939;52.00085300;4.17406100;2023-04-25T01:07:25;7.50;99.90
9800;DHT22;4939;52.00085300;4.17406100;2023-04-25T01:09:54;7.50;99.90
9800;DHT22;4939;52.00085300;4.17406100;2023-04-25T01:12:20;7.50;99.90
9800;DHT22;4939;52.00085300;4.17406100;2023-04-25T01:14:46;7.60;99.90
9800;DHT22;4939;52.00085300;4.17406100;2023-04-25T01:17:12;7.60;99.90
9800;DHT22;4939;52.00085300;4.17406100;2023-04-25T01:19:38;7.60;99.90
9800;DHT22;4939;52.00085300;4.17406100;2023-04-25T01:22:05;7.60;99.90
9800;DHT22;4939;52.00085300;4.17406100;2023-04-25T01:24:32;7.50;99.90
9800;DHT22;4939;52.00085300;4.17406100;2023-04-25T01:26:58;7.50;99.90
9800;DHT22;4939;52.00085300;4.17406100;2023-04-25T01:29:24;7.30;99.90
9800;DHT22;4939;52.00085300;4.17406100;2023-04-25T01:31:51;7.20;99.90
9800;DHT22;4939;52.00085300;4.17406100;2023-04-25T01:34:18;7.20;99.90
9800;DHT22;4939;52.00085300;4.17406100;2023-04-25T01:36:44;7.20;99.90
9800;DHT22;4939;52.00085300;4.17406100;2023-04-25T01:39:10;7.20;99.90
9800;DHT22;4939;52.00085300;4.17406100;2023-04-25T01:41:36;7.20;99.90
9800;DHT22;4939;52.00085300;4.17406100;2023-04-25T01:44:03;7.20;99.90
9800;DHT22;4939;52.00085300;4.17406100;2023-04-25T01:46:29;7.20;99.90
9800;DHT22;4939;52.00085300;4.17406100;2023-04-25T01:48:56;7.30;99.90
9800;DHT22;4939;52.00085300;4.17406100;2023-04-25T01:51:22;7.30;99.90
9800;DHT22;4939;52.00085300;4.17406100;2023-04-25T01:53:47;7.40;99.90
9800;DHT22;4939;52.00085300;4.17406100;2023-04-25T01:56:13;7.40;99.90
9800;DHT22;4939;52.00085300;4.17406100;2023-04-25T01:58:39;7.40;99.90
9800;DHT22;4939;52.00085300;4.17406100;2023-04-25T02:03:32;7.40;99.90
9800;DHT22;4939;52.00085300;4.17406100;2023-04-25T02:05:58;7.40;99.90
9800;DHT22;4939;52.00085300;4.17406100;2023-04-25T02:10:51;7.40;99.90
9800;DHT22;4939;52.00085300;4.17406100;2023-04-25T02:13:17;7.40;99.90
9800;DHT22;4939;52.00085300;4.17406100;2023-04-25T02:15:43;7.40;99.90
9800;DHT22;4939;52.00085300;4.17406100;2023-04-25T02:18:08;7.40;99.90
9800;DHT22;4939;52.00085300;4.17406100;2023-04-25T02:20:36;7.40;99.90
9800;DHT22;4939;52.00085300;4.17406100;2023-04-25T02:23:02;7.40;99.90
9800;DHT22;4939;52.00085300;4.17406100;2023-04-25T02:25:28;7.40;99.90
9800;DHT22;4939;52.00085300;4.17406100;2023-04-25T02:27:54;7.50;99.90
9800;DHT22;4939;52.00085300;4.17406100;2023-04-25T02:30:21;7.50;99.90
9800;DHT22;4939;52.00085300;4.17406100;2023-04-25T02:32:46;7.60;99.90
9800;DHT22;4939;52.00085300;4.17406100;2023-04-25T02:35:12;7.60;99.90
9800;DHT22;4939;52.00085300;4.17406100;2023-04-25T02:37:39;7.60;99.90
9800;DHT22;4939;52.00085300;4.17406100;2023-04-25T02:40:06;7.70;99.90
9800;DHT22;4939;52.00085300;4.17406100;2023-04-25T02:42:32;7.70;99.90
9800;DHT22;4939;52.00085300;4.17406100;2023-04-25T02:44:58;7.70;99.90
9800;DHT22;4939;52.00085300;4.17406100;2023-04-25T02:47:24;7.70;99.90
9800;DHT22;4939;52.00085300;4.17406100;2023-04-25T02:49:50;7.70;99.90
9800;DHT22;4939;52.00085300;4.17406100;2023-04-25T02:52:16;7.70;99.90
9800;DHT22;4939;52.00085300;4.17406100;2023-04-25T02:54:41;7.70;99.90
9800;DHT22;4939;52.00085300;4.17406100;2023-04-25T02:57:07;7.70;99.90
9800;DHT22;4939;52.00085300;4.17406100;2023-04-25T02:59:33;7.70;99.90
9800;DHT22;4939;52.00085300;4.17406100;2023-04-25T03:01:59;7.70;99.90
9800;DHT22;4939;52.00085300;4.17406100;2023-04-25T03:04:25;7.70;99.90
9800;DHT22;4939;52.00085300;4.17406100;2023-04-25T03:06:51;7.70;99.90
9800;DHT22;4939;52.00085300;4.17406100;2023-04-25T03:09:18;7.70;99.90
9800;DHT22;4939;52.00085300;4.17406100;2023-04-25T03:11:44;7.70;99.90
9800;DHT22;4939;52.00085300;4.17406100;2023-04-25T03:14:10;7.70;99.90
9800;DHT22;4939;52.00085300;4.17406100;2023-04-25T03:16:36;7.70;99.90
9800;DHT22;4939;52.00085300;4.17406100;2023-04-25T03:19:03;7.70;99.90
9800;DHT22;4939;52.00085300;4.17406100;2023-04-25T03:21:29;7.70;99.90
9800;DHT22;4939;52.00085300;4.17406100;2023-04-25T03:23:54;7.70;99.90
9800;DHT22;4939;52.00085300;4.17406100;2023-04-25T03:28:46;7.70;99.90
9800;DHT22;4939;52.00085300;4.17406100;2023-04-25T03:31:12;7.70;99.90
9800;DHT22;4939;52.00085300;4.17406100;2023-04-25T03:33:38;7.40;99.90
9800;DHT22;4939;52.00085300;4.17406100;2023-04-25T03:36:04;7.40;99.90
9800;DHT22;4939;52.00085300;4.17406100;2023-04-25T03:38:29;7.20;99.90
9800;DHT22;4939;52.00085300;4.17406100;2023-04-25T03:40:55;7.10;99.90
9800;DHT22;4939;52.00085300;4.17406100;2023-04-25T03:43:21;7.00;99.90
9800;DHT22;4939;52.00085300;4.17406100;2023-04-25T03:45:47;7.10;99.90
9800;DHT22;4939;52.00085300;4.17406100;2023-04-25T03:48:13;7.10;99.90
9800;DHT22;4939;52.00085300;4.17406100;2023-04-25T03:50:39;7.20;99.90
9800;DHT22;4939;52.00085300;4.17406100;2023-04-25T03:53:04;7.10;99.90
9800;DHT22;4939;52.00085300;4.17406100;2023-04-25T03:55:30;7.20;99.90
9800;DHT22;4939;52.00085300;4.17406100;2023-04-25T03:57:57;7.20;99.90
9800;DHT22;4939;52.00085300;4.17406100;2023-04-25T04:00:24;7.20;99.90
9800;DHT22;4939;52.00085300;4.17406100;2023-04-25T04:02:50;7.30;99.90
9800;DHT22;4939;52.00085300;4.17406100;2023-04-25T04:05:16;7.30;99.90
9800;DHT22;4939;52.00085300;4.17406100;2023-04-25T04:07:42;7.30;99.90
9800;DHT22;4939;52.00085300;4.17406100;2023-04-25T04:10:12;7.30;99.90
9800;DHT22;4939;52.00085300;4.17406100;2023-04-25T04:12:38;7.30;99.90
9800;DHT22;4939;52.00085300;4.17406100;2023-04-25T04:15:05;7.30;99.90
9800;DHT22;4939;52.00085300;4.17406100;2023-04-25T04:17:31;7.30;99.90
9800;DHT22;4939;52.00085300;4.17406100;2023-04-25T04:19:57;7.30;99.90
9800;DHT22;4939;52.00085300;4.17406100;2023-04-25T04:22:23;7.30;99.90
9800;DHT22;4939;52.00085300;4.17406100;2023-04-25T04:24:49;7.30;99.90
9800;DHT22;4939;52.00085300;4.17406100;2023-04-25T04:27:18;7.30;99.90
9800;DHT22;4939;52.00085300;4.17406100;2023-04-25T04:29:45;7.30;99.90
9800;DHT22;4939;52.00085300;4.17406100;2023-04-25T04:32:13;7.20;99.90
9800;DHT22;4939;52.00085300;4.17406100;2023-04-25T04:37:10;7.10;99.90
9800;DHT22;4939;52.00085300;4.17406100;2023-04-25T04:39:38;7.10;99.90
9800;DHT22;4939;52.00085300;4.17406100;2023-04-25T04:42:04;7.10;99.90
9800;DHT22;4939;52.00085300;4.17406100;2023-04-25T04:44:30;7.20;99.90
9800;DHT22;4939;52.00085300;4.17406100;2023-04-25T04:47:00;7.20;99.90
9800;DHT22;4939;52.00085300;4.17406100;2023-04-25T04:49:27;7.20;99.90
9800;DHT22;4939;52.00085300;4.17406100;2023-04-25T04:51:53;7.20;99.90
9800;DHT22;4939;52.00085300;4.17406100;2023-04-25T04:54:20;7.20;99.90
9800;DHT22;4939;52.00085300;4.17406100;2023-04-25T04:56:46;7.30;99.90
9800;DHT22;4939;52.00085300;4.17406100;2023-04-25T04:59:11;7.30;99.90
9800;DHT22;4939;52.00085300;4.17406100;2023-04-25T05:01:37;7.30;99.90
9800;DHT22;4939;52.00085300;4.17406100;2023-04-25T05:06:30;7.30;99.90
9800;DHT22;4939;52.00085300;4.17406100;2023-04-25T05:08:57;7.20;99.90
9800;DHT22;4939;52.00085300;4.17406100;2023-04-25T05:11:23;7.30;99.90
9800;DHT22;4939;52.00085300;4.17406100;2023-04-25T05:13:51;7.40;99.90
9800;DHT22;4939;52.00085300;4.17406100;2023-04-25T05:16:17;7.40;99.90
9800;DHT22;4939;52.00085300;4.17406100;2023-04-25T05:18:43;7.40;99.90
9800;DHT22;4939;52.00085300;4.17406100;2023-04-25T05:21:08;7.40;99.90
9800;DHT22;4939;52.00085300;4.17406100;2023-04-25T05:26:00;7.40;99.90
9800;DHT22;4939;52.00085300;4.17406100;2023-04-25T05:28:26;7.20;99.90
9800;DHT22;4939;52.00085300;4.17406100;2023-04-25T05:30:52;7.00;99.90
9800;DHT22;4939;52.00085300;4.17406100;2023-04-25T05:33:18;7.00;99.90
9800;DHT22;4939;52.00085300;4.17406100;2023-04-25T05:35:44;6.90;99.90
9800;DHT22;4939;52.00085300;4.17406100;2023-04-25T05:38:09;7.00;99.90
9800;DHT22;4939;52.00085300;4.17406100;2023-04-25T05:43:01;7.20;99.90
9800;DHT22;4939;52.00085300;4.17406100;2023-04-25T05:45:27;7.30;99.90
9800;DHT22;4939;52.00085300;4.17406100;2023-04-25T05:47:53;7.30;99.90
9800;DHT22;4939;52.00085300;4.17406100;2023-04-25T05:50:18;7.40;99.90
9800;DHT22;4939;52.00085300;4.17406100;2023-04-25T05:52:44;7.50;99.90
9800;DHT22;4939;52.00085300;4.17406100;2023-04-25T05:57:36;7.60;99.90
9800;DHT22;4939;52.00085300;4.17406100;2023-04-25T06:00:01;7.60;99.90
9800;DHT22;4939;52.00085300;4.17406100;2023-04-25T06:02:28;7.40;99.90
9800;DHT22;4939;52.00085300;4.17406100;2023-04-25T06:04:54;7.30;99.90
9800;DHT22;4939;52.00085300;4.17406100;2023-04-25T06:07:20;7.30;99.90
9800;DHT22;4939;52.00085300;4.17406100;2023-04-25T06:09:46;7.20;99.90
9800;DHT22;4939;52.00085300;4.17406100;2023-04-25T06:12:11;7.30;99.90
9800;DHT22;4939;52.00085300;4.17406100;2023-04-25T06:14:38;7.40;99.90
9800;DHT22;4939;52.00085300;4.17406100;2023-04-25T06:17:04;7.40;99.90
9800;DHT22;4939;52.00085300;4.17406100;2023-04-25T06:19:34;7.50;99.90
9800;DHT22;4939;52.00085300;4.17406100;2023-04-25T06:22:01;7.50;99.90
9800;DHT22;4939;52.00085300;4.17406100;2023-04-25T06:24:28;7.60;99.90
9800;DHT22;4939;52.00085300;4.17406100;2023-04-25T06:26:54;7.60;99.90
9800;DHT22;4939;52.00085300;4.17406100;2023-04-25T06:29:20;7.70;99.90
9800;DHT22;4939;52.00085300;4.17406100;2023-04-25T06:31:46;7.70;99.90
9800;DHT22;4939;52.00085300;4.17406100;2023-04-25T06:34:12;7.70;99.90
9800;DHT22;4939;52.00085300;4.17406100;2023-04-25T06:36:38;7.70;99.90
9800;DHT22;4939;52.00085300;4.17406100;2023-04-25T06:39:03;7.80;99.90
9800;DHT22;4939;52.00085300;4.17406100;2023-04-25T06:41:29;7.90;99.90
9800;DHT22;4939;52.00085300;4.17406100;2023-04-25T06:43:55;7.90;62.60
9800;DHT22;4939;52.00085300;4.17406100;2023-04-25T06:46:21;8.00;99.90
9800;DHT22;4939;52.00085300;4.17406100;2023-04-25T06:48:46;8.10;1.00
9800;DHT22;4939;52.00085300;4.17406100;2023-04-25T06:51:12;8.20;1.00
9800;DHT22;4939;52.00085300;4.17406100;2023-04-25T06:53:41;8.40;1.00
9800;DHT22;4939;52.00085300;4.17406100;2023-04-25T06:56:07;8.40;8.70
9800;DHT22;4939;52.00085300;4.17406100;2023-04-25T06:58:44;8.50;38.30
9800;DHT22;4939;52.00085300;4.17406100;2023-04-25T07:01:10;8.50;99.90
9800;DHT22;4939;52.00085300;4.17406100;2023-04-25T07:03:35;8.20;99.90
9800;DHT22;4939;52.00085300;4.17406100;2023-04-25T07:06:02;8.30;99.90
9800;DHT22;4939;52.00085300;4.17406100;2023-04-25T07:08:29;8.30;58.00
9800;DHT22;4939;52.00085300;4.17406100;2023-04-25T07:10:55;8.40;1.90
9800;DHT22;4939;52.00085300;4.17406100;2023-04-25T07:13:20;8.50;1.00
9800;DHT22;4939;52.00085300;4.17406100;2023-04-25T07:15:46;8.60;99.90
9800;DHT22;4939;52.00085300;4.17406100;2023-04-25T07:18:13;8.60;99.90
9800;DHT22;4939;52.00085300;4.17406100;2023-04-25T07:20:39;8.60;9.90
9800;DHT22;4939;52.00085300;4.17406100;2023-04-25T07:23:05;8.80;99.90
9800;DHT22;4939;52.00085300;4.17406100;2023-04-25T07:25:31;8.90;7.10
9800;DHT22;4939;52.00085300;4.17406100;2023-04-25T07:27:56;9.10;1.00
9800;DHT22;4939;52.00085300;4.17406100;2023-04-25T07:32:49;9.20;1.00
9800;DHT22;4939;52.00085300;4.17406100;2023-04-25T07:35:16;9.30;1.00
9800;DHT22;4939;52.00085300;4.17406100;2023-04-25T07:37:43;9.60;99.90
9800;DHT22;4939;52.00085300;4.17406100;2023-04-25T07:40:09;9.40;99.90
9800;DHT22;4939;52.00085300;4.17406100;2023-04-25T07:45:01;9.20;99.90
9800;DHT22;4939;52.00085300;4.17406100;2023-04-25T07:47:28;9.20;99.90
9800;DHT22;4939;52.00085300;4.17406100;2023-04-25T07:49:54;9.20;99.90
9800;DHT22;4939;52.00085300;4.17406100;2023-04-25T07:52:20;9.30;99.90
9800;DHT22;4939;52.00085300;4.17406100;2023-04-25T07:54:47;9.30;99.90
9800;DHT22;4939;52.00085300;4.17406100;2023-04-25T07:57:13;9.60;99.90
9800;DHT22;4939;52.00085300;4.17406100;2023-04-25T07:59:39;9.60;1.00
9800;DHT22;4939;52.00085300;4.17406100;2023-04-25T08:02:05;9.80;1.00
9800;DHT22;4939;52.00085300;4.17406100;2023-04-25T08:04:31;9.80;99.90
9800;DHT22;4939;52.00085300;4.17406100;2023-04-25T08:06:56;9.40;99.90
9800;DHT22;4939;52.00085300;4.17406100;2023-04-25T08:11:48;9.30;1.00
9800;DHT22;4939;52.00085300;4.17406100;2023-04-25T08:14:14;9.40;99.90
9800;DHT22;4939;52.00085300;4.17406100;2023-04-25T08:16:40;9.50;99.90
9800;DHT22;4939;52.00085300;4.17406100;2023-04-25T08:19:07;9.40;99.90
9800;DHT22;4939;52.00085300;4.17406100;2023-04-25T08:21:33;9.60;1.00
9800;DHT22;4939;52.00085300;4.17406100;2023-04-25T08:23:58;9.40;99.90
9800;DHT22;4939;52.00085300;4.17406100;2023-04-25T08:26:25;9.30;99.90
9800;DHT22;4939;52.00085300;4.17406100;2023-04-25T08:28:50;9.20;99.90
9800;DHT22;4939;52.00085300;4.17406100;2023-04-25T08:31:16;9.40;55.60
9800;DHT22;4939;52.00085300;4.17406100;2023-04-25T08:33:42;9.60;99.90
9800;DHT22;4939;52.00085300;4.17406100;2023-04-25T08:36:08;9.80;1.00
9800;DHT22;4939;52.00085300;4.17406100;2023-04-25T08:38:33;9.80;99.90
9800;DHT22;4939;52.00085300;4.17406100;2023-04-25T08:41:00;9.80;99.90
9800;DHT22;4939;52.00085300;4.17406100;2023-04-25T08:43:29;9.60;1.00
9800;DHT22;4939;52.00085300;4.17406100;2023-04-25T08:45:59;9.60;1.00
9800;DHT22;4939;52.00085300;4.17406100;2023-04-25T08:48:27;8.50;1.00
9800;DHT22;4939;52.00085300;4.17406100;2023-04-25T08:50:54;8.30;1.00
9800;DHT22;4939;52.00085300;4.17406100;2023-04-25T08:53:31;8.30;1.00
9800;DHT22;4939;52.00085300;4.17406100;2023-04-25T08:55:58;8.20;94.40
9800;DHT22;4939;52.00085300;4.17406100;2023-04-25T08:58:24;8.30;99.90
9800;DHT22;4939;52.00085300;4.17406100;2023-04-25T09:00:51;8.40;99.90
9800;DHT22;4939;52.00085300;4.17406100;2023-04-25T09:03:17;8.80;1.00
9800;DHT22;4939;52.00085300;4.17406100;2023-04-25T09:05:43;9.20;1.00
9800;DHT22;4939;52.00085300;4.17406100;2023-04-25T09:08:09;9.20;1.00
9800;DHT22;4939;52.00085300;4.17406100;2023-04-25T09:10:34;9.70;1.00
9800;DHT22;4939;52.00085300;4.17406100;2023-04-25T09:13:08;10.00;99.90
9800;DHT22;4939;52.00085300;4.17406100;2023-04-25T09:15:50;10.40;19.80
9800;DHT22;4939;52.00085300;4.17406100;2023-04-25T09:18:24;10.10;1.00
9800;DHT22;4939;52.00085300;4.17406100;2023-04-25T09:20:55;10.10;1.00
9800;DHT22;4939;52.00085300;4.17406100;2023-04-25T09:23:22;9.90;99.90
9800;DHT22;4939;52.00085300;4.17406100;2023-04-25T09:25:52;10.30;99.90
9800;DHT22;4939;52.00085300;4.17406100;2023-04-25T09:28:26;10.50;99.90
9800;DHT22;4939;52.00085300;4.17406100;2023-04-25T09:30:56;10.60;28.70
9800;DHT22;4939;52.00085300;4.17406100;2023-04-25T09:33:30;10.70;99.90
9800;DHT22;4939;52.00085300;4.17406100;2023-04-25T09:36:02;10.70;25.70
9800;DHT22;4939;52.00085300;4.17406100;2023-04-25T09:38:30;10.90;99.90
9800;DHT22;4939;52.00085300;4.17406100;2023-04-25T09:40:56;11.00;99.90
9800;DHT22;4939;52.00085300;4.17406100;2023-04-25T09:43:24;11.20;99.90
9800;DHT22;4939;52.00085300;4.17406100;2023-04-25T09:45:51;11.40;1.00
9800;DHT22;4939;52.00085300;4.17406100;2023-04-25T09:48:22;11.40;99.90
9800;DHT22;4939;52.00085300;4.17406100;2023-04-25T09:51:04;11.50;99.90
9800;DHT22;4939;52.00085300;4.17406100;2023-04-25T09:53:32;11.60;99.90
9800;DHT22;4939;52.00085300;4.17406100;2023-04-25T09:55:59;11.80;99.90
9800;DHT22;4939;52.00085300;4.17406100;2023-04-25T09:58:29;11.90;1.00
9800;DHT22;4939;52.00085300;4.17406100;2023-04-25T10:00:59;11.70;1.00
9800;DHT22;4939;52.00085300;4.17406100;2023-04-25T10:03:25;11.70;1.00
9800;DHT22;4939;52.00085300;4.17406100;2023-04-25T10:05:52;11.40;1.00
9800;DHT22;4939;52.00085300;4.17406100;2023-04-25T10:08:20;11.30;1.00
9800;DHT22;4939;52.00085300;4.17406100;2023-04-25T10:10:46;11.40;1.00
9800;DHT22;4939;52.00085300;4.17406100;2023-04-25T10:13:14;11.50;99.90
9800;DHT22;4939;52.00085300;4.17406100;2023-04-25T10:15:40;11.60;99.90
9800;DHT22;4939;52.00085300;4.17406100;2023-04-25T10:18:06;11.60;99.90
9800;DHT22;4939;52.00085300;4.17406100;2023-04-25T10:20:32;11.60;1.00
9800;DHT22;4939;52.00085300;4.17406100;2023-04-25T10:23:06;11.60;99.90
9800;DHT22;4939;52.00085300;4.17406100;2023-04-25T10:25:34;11.80;1.00
9800;DHT22;4939;52.00085300;4.17406100;2023-04-25T10:28:00;11.70;1.00
9800;DHT22;4939;52.00085300;4.17406100;2023-04-25T10:30:27;11.70;99.90
9800;DHT22;4939;52.00085300;4.17406100;2023-04-25T10:32:55;12.00;1.00
9800;DHT22;4939;52.00085300;4.17406100;2023-04-25T10:35:28;12.10;1.00
9800;DHT22;4939;52.00085300;4.17406100;2023-04-25T10:37:59;11.90;1.00
9800;DHT22;4939;52.00085300;4.17406100;2023-04-25T10:40:25;11.60;99.90
9800;DHT22;4939;52.00085300;4.17406100;2023-04-25T10:42:54;11.60;58.10
9800;DHT22;4939;52.00085300;4.17406100;2023-04-25T10:45:20;11.90;99.90
9800;DHT22;4939;52.00085300;4.17406100;2023-04-25T10:47:46;12.00;99.90
9800;DHT22;4939;52.00085300;4.17406100;2023-04-25T10:50:14;11.60;99.90
9800;DHT22;4939;52.00085300;4.17406100;2023-04-25T10:52:41;11.40;14.90
9800;DHT22;4939;52.00085300;4.17406100;2023-04-25T10:55:07;11.40;1.00
9800;DHT22;4939;52.00085300;4.17406100;2023-04-25T11:00:18;11.60;1.00
9800;DHT22;4939;52.00085300;4.17406100;2023-04-25T11:02:51;11.60;1.00
9800;DHT22;4939;52.00085300;4.17406100;2023-04-25T11:05:36;11.60;1.00
9800;DHT22;4939;52.00085300;4.17406100;2023-04-25T11:08:02;11.10;1.00
9800;DHT22;4939;52.00085300;4.17406100;2023-04-25T11:10:32;11.10;1.00
9800;DHT22;4939;52.00085300;4.17406100;2023-04-25T11:13:01;11.20;1.00
9800;DHT22;4939;52.00085300;4.17406100;2023-04-25T11:15:27;11.10;99.90
9800;DHT22;4939;52.00085300;4.17406100;2023-04-25T11:17:53;11.30;1.00
9800;DHT22;4939;52.00085300;4.17406100;2023-04-25T11:20:19;11.30;1.00
9800;DHT22;4939;52.00085300;4.17406100;2023-04-25T11:22:46;11.60;99.90
9800;DHT22;4939;52.00085300;4.17406100;2023-04-25T11:25:15;11.50;1.00
9800;DHT22;4939;52.00085300;4.17406100;2023-04-25T11:28:01;11.40;1.00
9800;DHT22;4939;52.00085300;4.17406100;2023-04-25T11:30:28;11.90;1.00
9800;DHT22;4939;52.00085300;4.17406100;2023-04-25T11:32:56;11.90;99.90
9800;DHT22;4939;52.00085300;4.17406100;2023-04-25T11:35:22;12.00;1.00
9800;DHT22;4939;52.00085300;4.17406100;2023-04-25T11:37:48;12.20;1.00
9800;DHT22;4939;52.00085300;4.17406100;2023-04-25T11:40:15;12.30;1.00
9800;DHT22;4939;52.00085300;4.17406100;2023-04-25T11:42:44;12.20;1.00
9800;DHT22;4939;52.00085300;4.17406100;2023-04-25T11:45:10;12.10;1.00
9800;DHT22;4939;52.00085300;4.17406100;2023-04-25T11:47:37;11.60;1.00
9800;DHT22;4939;52.00085300;4.17406100;2023-04-25T11:50:04;11.60;46.30
9800;DHT22;4939;52.00085300;4.17406100;2023-04-25T11:52:38;11.50;99.90
9800;DHT22;4939;52.00085300;4.17406100;2023-04-25T11:55:14;11.90;1.00
9800;DHT22;4939;52.00085300;4.17406100;2023-04-25T11:57:41;11.60;99.90
9800;DHT22;4939;52.00085300;4.17406100;2023-04-25T12:02:42;11.50;99.90
9800;DHT22;4939;52.00085300;4.17406100;2023-04-25T12:05:12;11.00;99.90
9800;DHT22;4939;52.00085300;4.17406100;2023-04-25T12:07:38;10.80;71.60
9800;DHT22;4939;52.00085300;4.17406100;2023-04-25T12:10:07;10.90;94.60
9800;DHT22;4939;52.00085300;4.17406100;2023-04-25T12:12:34;11.40;99.90
9800;DHT22;4939;52.00085300;4.17406100;2023-04-25T12:15:25;11.50;1.00
9800;DHT22;4939;52.00085300;4.17406100;2023-04-25T12:17:53;11.30;1.00
9800;DHT22;4939;52.00085300;4.17406100;2023-04-25T12:20:20;11.50;1.00
9800;DHT22;4939;52.00085300;4.17406100;2023-04-25T12:25:34;11.40;1.00
9800;DHT22;4939;52.00085300;4.17406100;2023-04-25T12:28:11;11.60;1.00
9800;DHT22;4939;52.00085300;4.17406100;2023-04-25T12:30:59;11.60;99.90
9800;DHT22;4939;52.00085300;4.17406100;2023-04-25T12:33:27;11.60;1.00
9800;DHT22;4939;52.00085300;4.17406100;2023-04-25T12:35:54;11.60;1.00
9800;DHT22;4939;52.00085300;4.17406100;2023-04-25T12:38:29;11.30;99.90
9800;DHT22;4939;52.00085300;4.17406100;2023-04-25T12:40:56;11.50;98.10
9800;DHT22;4939;52.00085300;4.17406100;2023-04-25T12:43:22;11.40;99.90
9800;DHT22;4939;52.00085300;4.17406100;2023-04-25T12:45:54;11.60;99.90
9800;DHT22;4939;52.00085300;4.17406100;2023-04-25T12:50:47;10.90;99.90
9800;DHT22;4939;52.00085300;4.17406100;2023-04-25T12:53:17;10.20;1.00
9800;DHT22;4939;52.00085300;4.17406100;2023-04-25T12:55:43;11.40;99.90
9800;DHT22;4939;52.00085300;4.17406100;2023-04-25T12:58:11;11.60;14.60
9800;DHT22;4939;52.00085300;4.17406100;2023-04-25T13:03:03;11.10;99.90
9800;DHT22;4939;52.00085300;4.17406100;2023-04-25T13:05:30;11.10;49.50
9800;DHT22;4939;52.00085300;4.17406100;2023-04-25T13:07:56;11.20;1.00
9800;DHT22;4939;52.00085300;4.17406100;2023-04-25T13:10:22;11.20;99.90
9800;DHT22;4939;52.00085300;4.17406100;2023-04-25T13:12:47;11.40;99.90
9800;DHT22;4939;52.00085300;4.17406100;2023-04-25T13:15:13;11.70;1.00
9800;DHT22;4939;52.00085300;4.17406100;2023-04-25T13:17:41;11.70;1.00
9800;DHT22;4939;52.00085300;4.17406100;2023-04-25T13:20:07;11.80;1.00
9800;DHT22;4939;52.00085300;4.17406100;2023-04-25T13:22:38;11.50;60.80
9800;DHT22;4939;52.00085300;4.17406100;2023-04-25T13:25:05;11.10;1.00
9800;DHT22;4939;52.00085300;4.17406100;2023-04-25T13:27:32;11.00;1.00
9800;DHT22;4939;52.00085300;4.17406100;2023-04-25T13:30:00;10.70;1.00
9800;DHT22;4939;52.00085300;4.17406100;2023-04-25T13:32:27;10.90;1.00
9800;DHT22;4939;52.00085300;4.17406100;2023-04-25T13:34:53;11.10;1.00
9800;DHT22;4939;52.00085300;4.17406100;2023-04-25T13:39:44;11.40;99.90
9800;DHT22;4939;52.00085300;4.17406100;2023-04-25T13:44:36;11.20;99.90
9800;DHT22;4939;52.00085300;4.17406100;2023-04-25T13:47:03;11.20;99.90
9800;DHT22;4939;52.00085300;4.17406100;2023-04-25T13:49:28;11.20;99.40
9800;DHT22;4939;52.00085300;4.17406100;2023-04-25T13:51:54;11.30;99.90
9800;DHT22;4939;52.00085300;4.17406100;2023-04-25T13:54:20;11.40;99.90
9800;DHT22;4939;52.00085300;4.17406100;2023-04-25T13:56:46;11.50;99.90
9800;DHT22;4939;52.00085300;4.17406100;2023-04-25T13:59:11;11.50;99.90
9800;DHT22;4939;52.00085300;4.17406100;2023-04-25T14:01:37;11.90;99.90
9800;DHT22;4939;52.00085300;4.17406100;2023-04-25T14:04:03;12.10;94.50
9800;DHT22;4939;52.00085300;4.17406100;2023-04-25T14:06:29;12.30;99.90
9800;DHT22;4939;52.00085300;4.17406100;2023-04-25T14:08:56;12.60;67.90
9800;DHT22;4939;52.00085300;4.17406100;2023-04-25T14:11:22;12.20;99.90
9800;DHT22;4939;52.00085300;4.17406100;2023-04-25T14:13:47;11.90;99.90
9800;DHT22;4939;52.00085300;4.17406100;2023-04-25T14:16:15;11.80;1.00
9800;DHT22;4939;52.00085300;4.17406100;2023-04-25T14:18:41;12.10;1.00
9800;DHT22;4939;52.00085300;4.17406100;2023-04-25T14:21:07;12.50;44.10
9800;DHT22;4939;52.00085300;4.17406100;2023-04-25T14:23:32;12.50;99.90
9800;DHT22;4939;52.00085300;4.17406100;2023-04-25T14:28:24;12.30;99.90
9800;DHT22;4939;52.00085300;4.17406100;2023-04-25T14:30:51;11.90;29.90
9800;DHT22;4939;52.00085300;4.17406100;2023-04-25T14:33:16;11.70;1.00
9800;DHT22;4939;52.00085300;4.17406100;2023-04-25T14:35:42;11.70;51.50
9800;DHT22;4939;52.00085300;4.17406100;2023-04-25T14:38:08;12.10;1.00
9800;DHT22;4939;52.00085300;4.17406100;2023-04-25T14:40:33;12.50;99.90
9800;DHT22;4939;52.00085300;4.17406100;2023-04-25T14:42:59;12.20;99.90